createdAt,value
2023-05-05T00:00:49.902Z,16.5135
2023-05-05T00:01:52.355Z,16.6565
2023-05-05T00:02:54.866Z,16.6224
2023-05-05T00:03:57.574Z,16.6171
2023-05-05T00:05:00.008Z,16.7996
2023-05-05T00:06:02.459Z,16.8022
2023-05-05T00:07:04.909Z,16.9328
2023-05-05T00:08:07.577Z,17.2809
2023-05-05T00:09:10.054Z,17.3996
2023-05-05T00:10:12.486Z,17.1748
2023-05-05T00:11:15.259Z,16.8261
2023-05-05T00:12:17.761Z,16.6406
2023-05-05T00:13:20.364Z,16.4834
2023-05-05T00:14:22.811Z,16.3541
2023-05-05T00:15:25.289Z,16.2972
2023-05-05T00:16:28.047Z,16.2074
2023-05-05T00:17:30.516Z,16.1282
2023-05-05T00:18:33.019Z,16.0398
2023-05-05T00:19:35.473Z,16.0060
2023-05-05T00:20:37.953Z,16.0530
2023-05-05T00:21:40.429Z,16.1889
2023-05-05T00:22:42.930Z,16.2355
2023-05-05T00:23:45.406Z,16.1961
2023-05-05T00:24:47.902Z,16.1524
2023-05-05T00:25:50.773Z,16.2465
2023-05-05T00:26:53.276Z,16.2873
2023-05-05T00:27:55.783Z,16.2338
2023-05-05T00:28:58.280Z,16.1479
2023-05-05T00:30:00.780Z,16.1534
2023-05-05T00:31:03.283Z,16.1797
2023-05-05T00:32:05.787Z,16.1482
2023-05-05T00:33:08.353Z,16.1036
2023-05-05T00:34:10.898Z,16.2267
2023-05-05T00:35:13.392Z,16.1311
2023-05-05T00:36:15.861Z,16.0968
2023-05-05T00:37:18.371Z,15.9944
2023-05-05T00:38:21.101Z,16.0183
2023-05-05T00:39:23.613Z,15.9980
2023-05-05T00:40:26.134Z,15.9768
2023-05-05T00:41:28.681Z,16.0791
2023-05-05T00:42:31.202Z,15.9826
2023-05-05T00:43:33.766Z,16.0390
2023-05-05T00:44:36.306Z,16.0412
2023-05-05T00:45:38.796Z,16.0398
2023-05-05T00:46:41.435Z,15.9622
2023-05-05T00:47:43.941Z,15.9506
2023-05-05T00:48:46.419Z,15.8527
2023-05-05T00:49:48.916Z,15.8188
2023-05-05T00:50:51.388Z,15.7467
2023-05-05T00:51:53.840Z,15.7129
2023-05-05T00:52:56.317Z,15.6776
2023-05-05T00:53:58.823Z,15.6388
2023-05-05T00:55:01.318Z,15.5714
2023-05-05T00:56:03.762Z,15.5525
2023-05-05T00:57:06.219Z,15.5192
2023-05-05T00:58:08.686Z,15.4933
2023-05-05T00:59:11.148Z,15.5258
2023-05-05T01:00:13.631Z,15.4828
2023-05-05T01:01:16.100Z,15.4815
2023-05-05T01:02:18.539Z,15.4443
2023-05-05T01:03:21.051Z,15.4044
2023-05-05T01:04:23.550Z,15.3782
2023-05-05T01:05:25.974Z,15.3554
2023-05-05T01:06:28.462Z,15.2813
2023-05-05T01:07:30.907Z,15.2374
2023-05-05T01:08:33.373Z,15.1862
2023-05-05T01:09:35.893Z,15.1955
2023-05-05T01:10:38.325Z,15.3125
2023-05-05T01:11:40.824Z,15.4311
2023-05-05T01:12:43.333Z,15.5874
2023-05-05T01:13:45.797Z,15.7095
2023-05-05T01:14:48.268Z,15.5744
2023-05-05T01:15:50.773Z,15.4630
2023-05-05T01:16:53.197Z,15.4217
2023-05-05T01:17:55.699Z,15.3188
2023-05-05T01:18:58.185Z,15.2787
2023-05-05T01:20:00.745Z,15.1982
2023-05-05T01:21:03.224Z,15.1872
2023-05-05T01:22:05.700Z,15.1820
2023-05-05T01:23:08.178Z,15.2093
2023-05-05T01:24:10.917Z,15.1884
2023-05-05T01:25:13.364Z,15.0989
2023-05-05T01:26:15.788Z,15.0332
2023-05-05T01:27:18.257Z,14.9746
2023-05-05T01:28:20.739Z,14.9402
2023-05-05T01:29:23.242Z,14.8744
2023-05-05T01:30:25.709Z,14.8612
2023-05-05T01:31:28.248Z,14.8666
2023-05-05T01:32:30.716Z,14.8505
2023-05-05T01:33:33.109Z,14.8785
2023-05-05T01:34:35.628Z,14.8300
2023-05-05T01:35:38.075Z,14.7723
2023-05-05T01:36:40.528Z,14.7221
2023-05-05T01:37:43.020Z,14.7318
2023-05-05T01:38:45.711Z,14.7060
2023-05-05T01:39:48.166Z,14.6825
2023-05-05T01:40:50.635Z,14.7106
2023-05-05T01:41:53.066Z,14.6737
2023-05-05T01:42:55.565Z,14.6669
2023-05-05T01:43:58.038Z,14.6474
2023-05-05T01:45:00.509Z,14.6036
2023-05-05T01:46:03.236Z,14.6021
2023-05-05T01:47:05.741Z,14.5710
2023-05-05T01:48:08.189Z,14.5797
2023-05-05T01:49:10.648Z,14.5659
2023-05-05T01:50:13.112Z,14.6652
2023-05-05T01:51:15.573Z,14.7675
2023-05-05T01:52:18.044Z,14.8435
2023-05-05T01:53:20.740Z,14.8948
2023-05-05T01:54:23.185Z,14.9215
2023-05-05T01:55:25.645Z,14.9468
2023-05-05T01:56:28.366Z,14.9896
2023-05-05T01:57:30.815Z,15.0904
2023-05-05T01:58:33.517Z,15.1858
2023-05-05T01:59:36.014Z,15.1575
2023-05-05T02:00:38.494Z,15.1906
2023-05-05T02:01:41.057Z,15.1184
2023-05-05T02:02:43.576Z,15.0631
2023-05-05T02:03:46.128Z,15.0579
2023-05-05T02:04:48.600Z,15.1396
2023-05-05T02:05:51.388Z,15.1303
2023-05-05T02:06:53.837Z,15.0466
2023-05-05T02:07:56.329Z,15.0191
2023-05-05T02:08:58.838Z,15.0116
2023-05-05T02:10:01.357Z,15.5813
2023-05-05T02:11:03.915Z,16.1165
2023-05-05T02:12:06.416Z,16.2010
2023-05-05T02:13:09.016Z,15.7712
2023-05-05T02:14:11.762Z,15.5046
2023-05-05T02:15:14.281Z,15.6273
2023-05-05T02:16:16.901Z,15.5547
2023-05-05T02:17:19.472Z,15.4542
2023-05-05T02:18:21.949Z,15.4101
2023-05-05T02:19:22.321Z,15.3307
2023-05-05T02:20:24.848Z,15.2759
2023-05-05T02:21:27.684Z,15.3579
2023-05-05T02:22:30.140Z,15.2830
2023-05-05T02:23:32.683Z,15.1325
2023-05-05T02:24:35.170Z,15.1985
2023-05-05T02:25:37.638Z,15.1361
2023-05-05T02:26:40.400Z,15.0494
2023-05-05T02:27:42.872Z,14.9976
2023-05-05T02:28:45.633Z,15.0197
2023-05-05T02:29:48.080Z,14.9439
2023-05-05T02:30:50.745Z,14.8639
2023-05-05T02:31:53.472Z,14.8133
2023-05-05T02:32:55.979Z,14.7257
2023-05-05T02:33:58.782Z,14.6613
2023-05-05T02:35:01.254Z,14.6892
2023-05-05T02:36:03.959Z,14.7538
2023-05-05T02:37:06.411Z,14.8152
2023-05-05T02:38:08.823Z,14.7437
2023-05-05T02:39:11.585Z,14.6883
2023-05-05T02:40:14.063Z,14.6784
2023-05-05T02:41:16.824Z,14.6423
2023-05-05T02:42:19.244Z,14.6021
2023-05-05T02:43:21.733Z,14.5402
2023-05-05T02:44:24.533Z,14.5194
2023-05-05T02:45:26.937Z,14.5029
2023-05-05T02:46:29.700Z,14.4206
2023-05-05T02:47:32.147Z,14.3898
2023-05-05T02:48:34.620Z,14.3677
2023-05-05T02:49:37.314Z,14.3322
2023-05-05T02:50:39.812Z,14.3680
2023-05-05T02:51:42.275Z,14.3873
2023-05-05T02:52:44.719Z,14.3770
2023-05-05T02:53:47.165Z,14.3661
2023-05-05T02:54:49.595Z,14.3303
2023-05-05T02:55:52.061Z,14.3119
2023-05-05T02:56:54.490Z,14.2800
2023-05-05T02:57:56.917Z,14.2408
2023-05-05T02:58:59.381Z,14.2100
2023-05-05T03:00:01.835Z,14.1731
2023-05-05T03:01:04.296Z,14.1538
2023-05-05T03:02:07.079Z,14.1300
2023-05-05T03:03:09.595Z,14.1500
2023-05-05T03:04:12.072Z,14.1651
2023-05-05T03:05:14.481Z,14.1314
2023-05-05T03:06:17.046Z,14.1325
2023-05-05T03:07:19.499Z,14.1765
2023-05-05T03:08:21.916Z,14.2315
2023-05-05T03:09:24.394Z,14.2106
2023-05-05T03:10:26.841Z,14.1501
2023-05-05T03:11:29.300Z,14.0859
2023-05-05T03:12:31.779Z,14.0491
2023-05-05T03:13:34.189Z,14.1183
2023-05-05T03:14:36.661Z,14.1043
2023-05-05T03:15:39.111Z,14.0355
2023-05-05T03:16:41.638Z,14.0160
2023-05-05T03:17:44.142Z,14.0133
2023-05-05T03:18:46.602Z,14.0457
2023-05-05T03:19:49.062Z,14.0281
2023-05-05T03:20:51.491Z,14.1118
2023-05-05T03:21:53.949Z,14.2105
2023-05-05T03:22:56.380Z,14.2348
2023-05-05T03:23:58.836Z,14.3641
2023-05-05T03:25:01.287Z,14.4577
2023-05-05T03:26:03.739Z,14.4605
2023-05-05T03:27:06.389Z,14.4236
2023-05-05T03:28:08.804Z,14.3658
2023-05-05T03:29:11.234Z,14.3759
2023-05-05T03:30:13.665Z,14.4486
2023-05-05T03:31:16.152Z,14.5003
2023-05-05T03:32:18.601Z,14.5752
2023-05-05T03:33:21.017Z,14.6382
2023-05-05T03:34:23.487Z,14.6770
2023-05-05T03:35:25.929Z,14.6141
2023-05-05T03:36:29.502Z,14.6075
2023-05-05T03:37:32.018Z,14.6055
2023-05-05T03:38:34.566Z,14.5819
2023-05-05T03:39:36.986Z,14.5303
2023-05-05T03:40:44.196Z,14.5130
2023-05-05T03:41:40.710Z,14.4802
2023-05-05T03:42:43.152Z,14.5053
2023-05-05T03:43:45.816Z,14.5218
2023-05-05T03:44:48.294Z,14.5593
2023-05-05T03:45:50.781Z,14.6168
2023-05-05T03:46:51.116Z,14.6707
2023-05-05T03:47:53.609Z,14.6845
2023-05-05T03:48:56.399Z,14.6743
2023-05-05T03:49:58.816Z,14.5914
2023-05-05T03:51:01.273Z,14.5537
2023-05-05T03:52:04.078Z,14.4962
2023-05-05T03:53:06.543Z,14.5702
2023-05-05T03:54:09.314Z,14.6446
2023-05-05T03:55:11.750Z,14.6399
2023-05-05T03:56:14.224Z,14.6679
2023-05-05T03:57:17.015Z,14.6473
2023-05-05T03:58:19.420Z,14.5713
2023-05-05T03:59:21.862Z,14.5695
2023-05-05T04:00:24.330Z,14.6277
2023-05-05T04:01:27.049Z,14.6807
2023-05-05T04:02:29.591Z,14.8034
2023-05-05T04:03:32.164Z,14.8490
2023-05-05T04:04:34.791Z,14.8650
2023-05-05T04:05:37.323Z,14.8705
2023-05-05T04:06:39.816Z,14.8498
2023-05-05T04:07:42.279Z,14.8045
2023-05-05T04:08:44.757Z,14.7612
2023-05-05T04:09:47.222Z,14.7133
2023-05-05T04:10:49.736Z,14.6803
2023-05-05T04:11:52.224Z,14.5936
2023-05-05T04:12:54.683Z,14.4569
2023-05-05T04:13:57.115Z,14.2295
2023-05-05T04:14:59.635Z,13.9737
2023-05-05T04:16:02.120Z,13.9376
2023-05-05T04:17:04.607Z,13.9543
2023-05-05T04:18:07.104Z,13.9073
2023-05-05T04:19:09.570Z,13.8709
2023-05-05T04:20:12.047Z,13.8123
2023-05-05T04:21:14.492Z,13.8354
2023-05-05T04:22:16.937Z,13.9051
2023-05-05T04:23:19.380Z,13.9825
2023-05-05T04:24:21.831Z,13.9832
2023-05-05T04:25:24.285Z,14.0292
2023-05-05T04:26:26.711Z,14.2976
2023-05-05T04:27:29.228Z,14.7007
2023-05-05T04:28:31.661Z,14.6149
2023-05-05T04:29:34.152Z,14.7489
2023-05-05T04:30:36.636Z,14.8097
2023-05-05T04:31:39.114Z,14.8796
2023-05-05T04:32:41.539Z,14.8254
2023-05-05T04:33:44.105Z,14.7563
2023-05-05T04:34:46.609Z,14.7679
2023-05-05T04:35:49.028Z,14.8435
2023-05-05T04:36:51.478Z,15.4170
2023-05-05T04:37:53.904Z,16.1680
2023-05-05T04:38:56.433Z,15.8087
2023-05-05T04:39:58.900Z,15.3290
2023-05-05T04:41:01.358Z,15.2784
2023-05-05T04:42:03.867Z,15.3662
2023-05-05T04:43:06.276Z,15.4705
2023-05-05T04:44:08.745Z,15.4595
2023-05-05T04:45:11.169Z,15.3296
2023-05-05T04:46:13.691Z,15.1770
2023-05-05T04:47:16.429Z,15.0095
2023-05-05T04:48:18.905Z,14.8922
2023-05-05T04:49:21.411Z,14.7360
2023-05-05T04:50:23.835Z,14.6861
2023-05-05T04:51:26.296Z,14.6163
2023-05-05T04:52:28.781Z,14.4476
2023-05-05T04:53:31.234Z,14.3985
2023-05-05T04:54:33.729Z,14.3818
2023-05-05T04:55:36.167Z,14.3677
2023-05-05T04:56:38.641Z,14.4621
2023-05-05T04:57:41.114Z,14.7794
2023-05-05T04:58:43.575Z,14.9069
2023-05-05T04:59:46.035Z,15.0017
2023-05-05T05:00:48.500Z,15.3298
2023-05-05T05:01:51.185Z,15.4679
2023-05-05T05:02:53.715Z,15.6194
2023-05-05T05:03:56.224Z,16.0279
2023-05-05T05:04:58.670Z,16.0373
2023-05-05T05:06:01.108Z,16.1344
2023-05-05T05:07:03.619Z,15.8859
2023-05-05T05:08:06.026Z,15.7856
2023-05-05T05:09:08.498Z,15.7046
2023-05-05T05:10:11.108Z,15.3812
2023-05-05T05:11:13.657Z,15.0769
2023-05-05T05:12:16.145Z,14.9935
2023-05-05T05:13:18.747Z,14.8821
2023-05-05T05:14:21.252Z,14.7739
2023-05-05T05:15:23.719Z,14.7455
2023-05-05T05:16:26.347Z,14.8176
2023-05-05T05:17:28.839Z,14.7616
2023-05-05T05:18:31.286Z,14.7769
2023-05-05T05:19:33.752Z,14.9442
2023-05-05T05:20:36.218Z,15.1320
2023-05-05T05:21:38.665Z,14.8915
2023-05-05T05:22:41.150Z,14.9390
2023-05-05T05:23:43.606Z,14.8424
2023-05-05T05:24:46.188Z,14.7241
2023-05-05T05:25:48.674Z,14.7362
2023-05-05T05:26:50.891Z,14.7782
2023-05-05T05:28:06.131Z,14.7497
2023-05-05T05:28:54.398Z,14.8065
2023-05-05T05:29:57.083Z,14.7671
2023-05-05T05:30:59.550Z,14.7437
2023-05-05T05:32:02.106Z,14.6613
2023-05-05T05:33:04.539Z,14.6338
2023-05-05T05:34:04.895Z,14.6708
2023-05-05T05:35:07.370Z,14.9603
2023-05-05T05:36:09.817Z,15.0800
2023-05-05T05:37:12.512Z,14.9542
2023-05-05T05:38:14.991Z,14.9291
2023-05-05T05:39:17.670Z,15.1025
2023-05-05T05:40:20.098Z,15.1300
2023-05-05T05:41:22.584Z,15.1072
2023-05-05T05:42:25.251Z,15.1234
2023-05-05T05:43:27.726Z,15.2096
2023-05-05T05:44:30.430Z,15.3859
2023-05-05T05:45:32.910Z,15.3845
2023-05-05T05:46:35.452Z,15.2835
2023-05-05T05:47:38.232Z,15.2417
2023-05-05T05:48:40.694Z,15.3628
2023-05-05T05:49:43.383Z,15.2527
2023-05-05T05:50:45.990Z,15.2470
2023-05-05T05:51:48.420Z,15.2092
2023-05-05T05:52:50.838Z,15.2440
2023-05-05T05:53:53.361Z,15.5891
2023-05-05T05:54:55.780Z,16.2413
2023-05-05T05:55:58.263Z,16.8195
2023-05-05T05:57:00.826Z,16.6766
2023-05-05T05:58:03.257Z,16.8723
2023-05-05T05:59:05.712Z,17.3162
2023-05-05T06:00:08.669Z,17.6246
2023-05-05T06:01:11.379Z,17.4673
2023-05-05T06:02:14.176Z,17.3765
2023-05-05T06:03:16.868Z,17.5152
2023-05-05T06:04:19.678Z,17.6497
2023-05-05T06:05:22.125Z,17.1792
2023-05-05T06:06:24.583Z,16.6711
2023-05-05T06:07:30.688Z,16.3443
2023-05-05T06:08:33.150Z,16.5933
2023-05-05T06:09:35.922Z,16.2800
2023-05-05T06:10:38.357Z,16.5157
2023-05-05T06:11:40.798Z,16.9028
2023-05-05T06:12:43.439Z,17.1277
2023-05-05T06:13:45.884Z,17.8314
2023-05-05T06:14:48.590Z,18.1186
2023-05-05T06:15:51.096Z,18.0429
2023-05-05T06:16:53.619Z,17.7574
2023-05-05T06:17:56.061Z,18.3377
2023-05-05T06:18:58.536Z,18.1156
2023-05-05T06:20:01.348Z,18.4221
2023-05-05T06:21:03.802Z,18.1454
2023-05-05T06:22:06.281Z,18.0128
2023-05-05T06:23:08.742Z,18.6647
2023-05-05T06:24:11.243Z,19.1286
2023-05-05T06:25:13.927Z,19.4061
2023-05-05T06:26:16.418Z,18.7898
2023-05-05T06:27:18.884Z,19.2024
2023-05-05T06:28:21.353Z,19.1066
2023-05-05T06:29:23.958Z,18.2992
2023-05-05T06:30:26.449Z,18.6063
2023-05-05T06:31:28.977Z,18.9940
2023-05-05T06:32:31.435Z,19.2645
2023-05-05T06:33:33.881Z,18.9187
2023-05-05T06:34:36.617Z,19.2426
2023-05-05T06:35:39.044Z,19.0310
2023-05-05T06:36:41.604Z,18.6322
2023-05-05T06:37:44.392Z,18.8353
2023-05-05T06:38:46.828Z,19.0284
2023-05-05T06:39:49.314Z,19.3263
2023-05-05T06:40:51.796Z,19.1006
2023-05-05T06:41:54.271Z,19.4052
2023-05-05T06:42:56.669Z,18.9702
2023-05-05T06:43:59.103Z,19.3887
2023-05-05T06:45:01.902Z,18.6732
2023-05-05T06:46:04.327Z,18.6987
2023-05-05T06:47:06.837Z,19.0598
2023-05-05T06:48:09.335Z,19.2183
2023-05-05T06:49:11.766Z,19.1580
2023-05-05T06:50:14.277Z,18.7445
2023-05-05T06:51:16.756Z,18.9467
2023-05-05T06:52:19.242Z,19.2126
2023-05-05T06:53:21.701Z,19.4064
2023-05-05T06:54:24.198Z,19.5676
2023-05-05T06:55:26.875Z,19.9347
2023-05-05T06:56:29.364Z,20.2449
2023-05-05T06:57:31.880Z,20.1105
2023-05-05T06:58:34.358Z,19.9851
2023-05-05T06:59:36.837Z,20.5044
2023-05-05T07:00:39.412Z,20.8618
2023-05-05T07:01:41.895Z,20.3203
2023-05-05T07:02:42.702Z,20.3290
2023-05-05T07:03:45.284Z,20.1482
2023-05-05T07:04:48.026Z,19.6667
2023-05-05T07:05:50.523Z,19.1663
2023-05-05T07:06:53.005Z,19.4181
2023-05-05T07:07:55.503Z,19.6790
2023-05-05T07:08:57.976Z,20.4405
2023-05-05T07:10:00.483Z,20.4608
2023-05-05T07:11:02.960Z,20.2793
2023-05-05T07:12:05.412Z,20.4025
2023-05-05T07:13:07.977Z,20.5319
2023-05-05T07:14:10.535Z,20.7746
2023-05-05T07:15:26.933Z,21.3844
2023-05-05T07:16:14.190Z,21.8396
2023-05-05T07:17:16.693Z,21.8446
2023-05-05T07:18:19.200Z,21.4582
2023-05-05T07:19:21.717Z,21.3429
2023-05-05T07:20:24.445Z,21.4480
2023-05-05T07:21:27.081Z,21.1357
2023-05-05T07:22:29.623Z,19.9614
2023-05-05T07:23:32.163Z,20.5410
2023-05-05T07:24:34.604Z,21.1049
2023-05-05T07:25:37.119Z,21.4070
2023-05-05T07:26:39.612Z,20.0649
2023-05-05T07:28:42.438Z,20.2907
2023-05-05T07:28:42.438Z,20.4653
2023-05-05T07:29:44.957Z,20.4915
2023-05-05T07:30:47.482Z,20.2751
2023-05-05T07:31:50.040Z,20.3337
2023-05-05T07:32:52.541Z,19.9215
2023-05-05T07:33:55.001Z,20.1351
2023-05-05T07:34:57.507Z,19.8166
2023-05-05T07:36:00.457Z,19.6513
2023-05-05T07:37:02.957Z,19.9086
2023-05-05T07:38:05.652Z,20.7510
2023-05-05T07:39:08.448Z,20.0563
2023-05-05T07:40:11.145Z,20.1048
2023-05-05T07:41:13.787Z,20.3244
2023-05-05T07:42:16.282Z,20.9857
2023-05-05T07:43:18.810Z,21.0342
2023-05-05T07:44:21.344Z,20.3221
2023-05-05T07:45:24.112Z,20.1947
2023-05-05T07:46:26.678Z,20.0601
2023-05-05T07:47:29.200Z,19.6270
2023-05-05T07:48:31.666Z,19.9930
2023-05-05T07:49:34.411Z,20.0476
2023-05-05T07:51:40.541Z,20.7575
2023-05-05T07:51:40.541Z,20.5302
2023-05-05T07:52:48.416Z,20.1326
2023-05-05T07:53:44.152Z,20.5619
2023-05-05T07:54:46.685Z,20.0173
2023-05-05T07:55:49.405Z,19.4523
2023-05-05T07:56:51.975Z,19.2582
2023-05-05T07:57:54.896Z,19.5226
2023-05-05T07:58:57.409Z,19.8166
2023-05-05T08:00:07.557Z,19.6719
2023-05-05T08:01:10.208Z,20.2812
2023-05-05T08:03:13.023Z,20.6477
2023-05-05T08:03:13.023Z,21.2505
2023-05-05T08:04:15.595Z,21.8229
2023-05-05T08:05:18.151Z,21.0024
2023-05-05T08:06:20.655Z,20.6169
2023-05-05T08:07:23.527Z,20.5641
2023-05-05T08:08:26.081Z,21.1442
2023-05-05T08:09:28.557Z,22.1471
2023-05-05T08:10:31.323Z,22.1616
2023-05-05T08:11:33.864Z,22.2013
2023-05-05T08:12:36.327Z,22.2623
2023-05-05T08:13:38.836Z,22.1179
2023-05-05T08:14:41.350Z,21.9847
2023-05-05T08:15:44.062Z,22.3906
2023-05-05T08:16:46.558Z,22.9313
2023-05-05T08:17:49.492Z,23.1101
2023-05-05T08:18:52.195Z,22.8538
2023-05-05T08:19:54.678Z,22.9531
2023-05-05T08:20:57.160Z,24.0165
2023-05-05T08:22:01.205Z,24.7600
2023-05-05T08:23:00.322Z,24.5444
2023-05-05T08:24:02.782Z,21.9265
2023-05-05T08:25:05.415Z,21.4984
2023-05-05T08:27:08.187Z,22.5257
2023-05-05T08:27:08.187Z,21.4221
2023-05-05T08:28:10.681Z,22.2906
2023-05-05T08:30:14.119Z,21.9890
2023-05-05T08:30:14.119Z,22.5125
2023-05-05T08:31:16.635Z,22.7470
2023-05-05T08:32:19.128Z,22.7811
2023-05-05T08:33:21.624Z,22.7010
2023-05-05T08:34:24.113Z,23.6666
2023-05-05T08:35:26.611Z,24.1642
2023-05-05T08:36:29.103Z,23.8415
2023-05-05T08:37:31.672Z,22.9574
2023-05-05T08:38:34.146Z,22.7773
2023-05-05T08:39:36.637Z,22.4723
2023-05-05T08:40:39.147Z,23.9005
2023-05-05T08:41:41.647Z,23.9817
2023-05-05T08:42:44.155Z,23.4540
2023-05-05T08:43:46.652Z,22.5991
2023-05-05T08:44:49.641Z,22.0708
2023-05-05T08:45:52.155Z,21.7725
2023-05-05T08:46:54.694Z,21.5557
2023-05-05T08:47:57.168Z,22.1852
2023-05-05T08:48:59.672Z,21.2223
2023-05-05T08:50:02.283Z,21.2482
2023-05-05T08:51:05.670Z,21.4598
2023-05-05T08:52:08.256Z,21.2235
2023-05-05T08:53:10.742Z,20.9645
2023-05-05T08:54:13.245Z,21.0958
2023-05-05T08:55:15.826Z,21.3858
2023-05-05T08:57:18.689Z,21.1313
2023-05-05T08:57:18.689Z,21.4744
2023-05-05T08:58:21.188Z,22.0950
2023-05-05T08:59:23.672Z,23.0029
2023-05-05T09:00:26.164Z,22.7742
2023-05-05T09:02:29.511Z,23.2567
2023-05-05T09:02:29.511Z,22.8962
2023-05-05T09:03:32.040Z,23.2497
2023-05-05T09:04:34.614Z,24.3473
2023-05-05T09:05:37.356Z,24.2359
2023-05-05T09:06:39.805Z,22.9592
2023-05-05T09:07:42.312Z,24.0365
2023-05-05T09:08:44.596Z,24.6149
2023-05-05T09:09:47.072Z,23.8430
2023-05-05T09:10:52.929Z,23.0800
2023-05-05T09:11:55.487Z,23.0510
2023-05-05T09:12:57.989Z,22.4154
2023-05-05T09:14:00.494Z,22.5007
2023-05-05T09:15:02.996Z,22.4616
2023-05-05T09:16:05.525Z,23.2842
2023-05-05T09:17:08.002Z,22.4421
2023-05-05T09:18:10.572Z,22.1611
2023-05-05T09:19:13.019Z,22.6594
2023-05-05T09:20:15.519Z,22.4643
2023-05-05T09:21:18.003Z,23.0967
2023-05-05T09:22:20.492Z,21.8894
2023-05-05T09:23:22.991Z,21.2097
2023-05-05T09:24:25.485Z,22.4425
2023-05-05T09:25:27.978Z,22.7294
2023-05-05T09:26:30.486Z,22.9340
2023-05-05T09:27:32.986Z,22.4153
2023-05-05T09:28:35.490Z,22.0840
2023-05-05T09:29:38.002Z,22.3660
2023-05-05T09:30:40.269Z,22.4999
2023-05-05T09:31:42.769Z,24.3412
2023-05-05T09:32:43.849Z,24.1814
2023-05-05T09:34:47.003Z,22.7451
2023-05-05T09:34:47.003Z,23.8805
2023-05-05T09:35:49.239Z,22.3514
2023-05-05T09:36:51.743Z,22.1902
2023-05-05T09:37:54.235Z,22.2923
2023-05-05T09:38:58.780Z,23.2156
2023-05-05T09:39:57.487Z,24.1659
2023-05-05T09:40:59.970Z,24.8462
2023-05-05T09:42:02.437Z,24.3792
2023-05-05T09:43:04.962Z,24.9546
2023-05-05T09:44:07.461Z,25.2631
2023-05-05T09:45:10.109Z,25.5752
2023-05-05T09:46:12.662Z,25.4932
2023-05-05T09:47:28.539Z,25.3370
2023-05-05T09:48:16.498Z,24.3821
2023-05-05T09:49:18.998Z,24.3583
2023-05-05T09:50:21.492Z,24.7220
2023-05-05T09:51:23.950Z,24.6791
2023-05-05T09:52:26.502Z,24.1306
2023-05-05T09:53:28.980Z,23.6628
2023-05-05T09:54:31.487Z,23.2245
2023-05-05T09:55:34.324Z,24.0104
2023-05-05T09:56:36.834Z,24.7890
2023-05-05T09:57:39.372Z,25.4915
2023-05-05T09:58:41.967Z,25.7149
2023-05-05T09:59:44.477Z,24.8168
2023-05-05T10:00:46.989Z,24.5707
2023-05-05T10:01:49.510Z,23.5827
2023-05-05T10:02:52.034Z,23.5437
2023-05-05T10:03:54.516Z,24.7603
2023-05-05T10:04:57.144Z,24.3877
2023-05-05T10:05:59.674Z,23.9748
2023-05-05T10:07:02.179Z,23.8452
2023-05-05T10:08:04.679Z,24.1537
2023-05-05T10:09:07.177Z,24.7903
2023-05-05T10:10:09.862Z,24.3514
2023-05-05T10:11:12.640Z,23.1515
2023-05-05T10:12:15.357Z,23.4357
2023-05-05T10:13:17.944Z,22.6123
2023-05-05T10:14:20.551Z,23.3435
2023-05-05T10:15:23.047Z,23.8213
2023-05-05T10:16:26.796Z,24.5666
2023-05-05T10:17:26.287Z,24.3254
2023-05-05T10:18:28.782Z,23.8024
2023-05-05T10:19:31.265Z,24.1051
2023-05-05T10:20:33.795Z,23.2044
2023-05-05T10:21:36.283Z,22.5466
2023-05-05T10:22:38.933Z,22.8185
2023-05-05T10:23:41.418Z,23.3232
2023-05-05T10:24:43.915Z,24.1708
2023-05-05T10:25:46.434Z,25.0707
2023-05-05T10:26:48.921Z,24.8102
2023-05-05T10:27:51.694Z,25.0874
2023-05-05T10:28:54.176Z,25.8767
2023-05-05T10:29:56.699Z,25.0658
2023-05-05T10:30:59.202Z,23.5945
2023-05-05T10:32:08.739Z,22.6695
2023-05-05T10:33:27.249Z,22.0535
2023-05-05T10:34:08.464Z,22.1862
2023-05-05T10:35:10.979Z,22.4021
2023-05-05T10:36:13.533Z,23.4723
2023-05-05T10:37:15.996Z,22.6485
2023-05-05T10:38:18.531Z,23.2302
2023-05-05T10:39:21.010Z,23.7820
2023-05-05T10:40:23.555Z,22.9720
2023-05-05T10:41:26.192Z,22.3254
2023-05-05T10:42:28.975Z,22.4425
2023-05-05T10:43:31.497Z,22.3196
2023-05-05T10:44:33.985Z,22.4822
2023-05-05T10:45:36.570Z,23.4704
2023-05-05T10:46:39.175Z,24.1772
2023-05-05T10:47:41.700Z,24.5723
2023-05-05T10:48:44.273Z,23.5874
2023-05-05T10:49:46.782Z,23.3020
2023-05-05T10:50:49.288Z,23.3076
2023-05-05T10:52:52.011Z,23.3059
2023-05-05T10:52:52.011Z,23.6847
2023-05-05T10:54:02.225Z,24.1727
2023-05-05T10:55:04.705Z,23.2131
2023-05-05T10:56:07.187Z,23.0241
2023-05-05T10:57:09.714Z,23.1917
2023-05-05T10:58:12.239Z,23.5957
2023-05-05T10:59:15.569Z,23.2748
2023-05-05T11:00:18.104Z,23.9331
2023-05-05T11:01:20.688Z,24.3429
2023-05-05T11:02:23.343Z,23.3939
2023-05-05T11:03:23.397Z,22.4256
2023-05-05T11:04:25.987Z,22.7690
2023-05-05T11:05:28.457Z,23.4184
2023-05-05T11:06:31.172Z,24.0308
2023-05-05T11:07:33.671Z,23.7493
2023-05-05T11:08:36.149Z,23.8972
2023-05-05T11:09:38.667Z,23.2272
2023-05-05T11:10:41.135Z,22.5590
2023-05-05T11:11:43.791Z,23.3098
2023-05-05T11:12:46.350Z,22.8791
2023-05-05T11:13:49.049Z,24.1830
2023-05-05T11:14:51.628Z,23.7859
2023-05-05T11:15:54.235Z,23.5769
2023-05-05T11:16:56.949Z,24.0963
2023-05-05T11:17:59.597Z,24.8308
2023-05-05T11:19:02.111Z,25.1701
2023-05-05T11:20:04.670Z,25.0784
2023-05-05T11:21:07.168Z,25.3011
2023-05-05T11:22:09.672Z,25.3054
2023-05-05T11:23:14.003Z,24.9281
2023-05-05T11:24:14.962Z,25.1073
2023-05-05T11:25:18.255Z,25.8178
2023-05-05T11:26:26.008Z,25.7826
2023-05-05T11:27:21.180Z,24.3257
2023-05-05T11:28:23.729Z,25.5008
2023-05-05T11:29:26.222Z,26.2004
2023-05-05T11:30:29.409Z,25.6720
2023-05-05T11:31:32.029Z,25.4364
2023-05-05T11:32:34.604Z,26.1201
2023-05-05T11:33:37.099Z,25.8732
2023-05-05T11:34:39.599Z,25.5669
2023-05-05T11:35:42.082Z,25.2215
2023-05-05T11:36:44.589Z,24.9252
2023-05-05T11:37:47.093Z,24.3431
2023-05-05T11:38:49.585Z,24.2463
2023-05-05T11:39:52.075Z,24.5746
2023-05-05T11:40:54.783Z,24.0096
2023-05-05T11:41:57.241Z,23.1803
2023-05-05T11:42:59.733Z,23.8580
2023-05-05T11:44:02.240Z,24.5866
2023-05-05T11:45:04.724Z,25.4475
2023-05-05T11:46:07.262Z,24.7705
2023-05-05T11:47:09.726Z,24.7107
2023-05-05T11:48:12.532Z,23.6271
2023-05-05T11:49:14.998Z,23.9856
2023-05-05T11:50:17.738Z,25.1637
2023-05-05T11:51:20.257Z,25.2579
2023-05-05T11:52:22.750Z,25.3693
2023-05-05T11:53:25.295Z,24.9358
2023-05-05T11:54:27.829Z,24.5256
2023-05-05T11:55:30.287Z,23.8654
2023-05-05T11:56:32.798Z,23.9386
2023-05-05T11:57:35.286Z,24.5954
2023-05-05T11:58:37.791Z,24.7187
2023-05-05T11:59:40.290Z,23.8346
2023-05-05T12:00:42.799Z,24.1544
2023-05-05T12:01:45.308Z,25.0272
2023-05-05T12:02:47.862Z,24.2829
2023-05-05T12:03:50.746Z,24.4435
2023-05-05T12:04:53.380Z,24.6924
2023-05-05T12:05:56.032Z,25.3253
2023-05-05T12:06:58.461Z,25.4758
2023-05-05T12:08:00.936Z,24.2917
2023-05-05T12:09:03.409Z,24.8723
2023-05-05T12:10:05.966Z,24.6516
2023-05-05T12:11:08.458Z,25.1527
2023-05-05T12:12:10.946Z,25.6261
2023-05-05T12:13:13.468Z,26.5378
2023-05-05T12:14:16.103Z,25.2443
2023-05-05T12:15:18.560Z,25.6965
2023-05-05T12:16:21.147Z,25.8581
2023-05-05T12:17:23.625Z,25.1004
2023-05-05T12:18:26.085Z,25.4313
2023-05-05T12:19:28.579Z,24.6599
2023-05-05T12:20:31.076Z,25.3300
2023-05-05T12:21:33.566Z,25.9571
2023-05-05T12:22:36.118Z,26.6353
2023-05-05T12:23:38.627Z,25.5050
2023-05-05T12:24:41.104Z,25.8514
2023-05-05T12:25:43.559Z,25.5594
2023-05-05T12:26:46.066Z,25.8418
2023-05-05T12:27:48.534Z,26.0543
2023-05-05T12:28:51.057Z,25.7618
2023-05-05T12:29:53.541Z,25.9673
2023-05-05T12:30:56.053Z,25.2915
2023-05-05T12:31:58.600Z,25.4350
2023-05-05T12:33:01.165Z,25.3434
2023-05-05T12:34:03.650Z,24.9810
2023-05-05T12:35:06.155Z,25.4051
2023-05-05T12:36:08.621Z,25.3112